createdAt,value
2017-08-27T00:00:06.051Z,19.2
2017-08-27T00:01:05.238Z,19.2
2017-08-27T00:02:04.821Z,19.2
2017-08-27T00:03:04.263Z,19.2
2017-08-27T00:04:03.828Z,19.2
2017-08-27T00:05:02.769Z,19.1
2017-08-27T00:06:01.957Z,19.1
2017-08-27T00:07:01.523Z,19.1
2017-08-27T00:08:01.083Z,19.1
2017-08-27T00:09:59.785Z,19.1
2017-08-27T00:10:59.225Z,19.1
2017-08-27T00:11:58.672Z,19.1
2017-08-27T00:12:58.003Z,19.1
2017-08-27T00:13:57.446Z,19
2017-08-27T00:14:56.878Z,19
2017-08-27T00:17:54.713Z,19
2017-08-27T00:18:54.394Z,19
2017-08-27T00:19:53.348Z,19
2017-08-27T00:20:53.030Z,19
2017-08-27T00:21:52.348Z,19
2017-08-27T00:22:51.659Z,18.9
2017-08-27T00:23:51.099Z,18.9
2017-08-27T00:24:50.161Z,18.9
2017-08-27T00:25:49.848Z,18.9
2017-08-27T00:26:48.909Z,18.9
2017-08-27T00:27:48.474Z,18.9
2017-08-27T00:28:47.788Z,18.9
2017-08-27T00:29:46.845Z,18.9
2017-08-27T00:30:46.654Z,18.9
2017-08-27T00:31:45.977Z,18.9
2017-08-27T00:32:45.165Z,18.9
2017-08-27T00:33:44.743Z,18.9
2017-08-27T00:34:44.314Z,18.9
2017-08-27T00:35:43.133Z,18.9
2017-08-27T00:36:42.589Z,18.9
2017-08-27T00:37:42.158Z,18.9
2017-08-27T00:39:40.610Z,18.9
2017-08-27T00:41:39.569Z,18.9
2017-08-27T00:42:39.005Z,18.8
2017-08-27T00:43:38.330Z,18.9
2017-08-27T00:44:37.534Z,18.9
2017-08-27T00:45:37.097Z,18.8
2017-08-27T00:46:36.539Z,18.8
2017-08-27T00:48:35.086Z,18.9
2017-08-27T00:49:34.646Z,18.9
2017-08-27T00:50:33.835Z,18.9
2017-08-27T00:51:33.140Z,18.9
2017-08-27T00:52:32.574Z,18.9
2017-08-27T00:53:32.022Z,18.9
2017-08-27T00:54:31.456Z,18.9
2017-08-27T00:55:30.777Z,18.9
2017-08-27T00:56:29.840Z,18.9
2017-08-27T00:57:29.281Z,18.9
2017-08-27T00:58:28.850Z,18.9
2017-08-27T00:58:59.593Z,18.9
2017-08-27T00:59:30.210Z,18.9
2017-08-27T01:00:00.826Z,18.9
2017-08-27T01:01:26.948Z,18.9
2017-08-27T01:02:26.274Z,18.9
2017-08-27T01:03:25.835Z,18.9
2017-08-27T01:04:24.658Z,18.9
2017-08-27T01:05:24.100Z,18.9
2017-08-27T01:06:23.545Z,18.9
2017-08-27T01:07:22.868Z,18.9
2017-08-27T01:08:22.305Z,18.9
2017-08-27T01:09:21.616Z,19
2017-08-27T01:10:21.306Z,18.9
2017-08-27T01:11:20.273Z,19
2017-08-27T01:12:19.956Z,18.9
2017-08-27T01:13:19.394Z,18.9
2017-08-27T01:15:17.705Z,18.9
2017-08-27T01:16:17.176Z,18.9
2017-08-27T01:17:16.614Z,19
2017-08-27T01:17:47.235Z,19
2017-08-27T01:18:17.854Z,19
2017-08-27T01:18:48.491Z,19
2017-08-27T01:20:14.853Z,19
2017-08-27T01:21:14.043Z,19
2017-08-27T01:23:12.747Z,19
2017-08-27T01:24:12.305Z,19
2017-08-27T01:25:11.751Z,19
2017-08-27T01:26:10.936Z,19
2017-08-27T01:27:10.373Z,19
2017-08-27T01:28:09.691Z,19
2017-08-27T01:29:09.124Z,19
2017-08-27T01:30:08.441Z,19
2017-08-27T01:31:08.017Z,19
2017-08-27T01:32:06.845Z,19
2017-08-27T01:34:06.167Z,19
2017-08-27T01:35:05.103Z,19
2017-08-27T01:36:04.799Z,19
2017-08-27T01:37:04.243Z,19
2017-08-27T01:38:03.432Z,19
2017-08-27T01:39:02.368Z,19
2017-08-27T01:40:01.820Z,19
2017-08-27T01:41:01.261Z,19
2017-08-27T01:42:00.572Z,19
2017-08-27T01:43:00.390Z,19
2017-08-27T01:44:58.734Z,19
2017-08-27T01:45:58.059Z,19
2017-08-27T01:46:57.375Z,19
2017-08-27T01:47:56.812Z,19
2017-08-27T01:48:56.140Z,19
2017-08-27T01:49:55.577Z,19
2017-08-27T01:50:54.888Z,19
2017-08-27T01:51:54.205Z,19
2017-08-27T01:52:53.649Z,19
2017-08-27T01:53:53.208Z,19
2017-08-27T01:54:52.390Z,18.9
2017-08-27T01:55:51.831Z,19
2017-08-27T01:56:51.282Z,19
2017-08-27T01:57:50.592Z,19
2017-08-27T01:58:49.916Z,19
2017-08-27T01:59:49.108Z,19
2017-08-27T02:00:48.806Z,19
2017-08-27T02:01:47.997Z,19
2017-08-27T02:02:47.439Z,19
2017-08-27T02:03:46.864Z,19
2017-08-27T02:04:46.433Z,19
2017-08-27T02:05:45.364Z,19
2017-08-27T02:06:44.553Z,19
2017-08-27T02:07:44.241Z,19
2017-08-27T02:08:43.563Z,19
2017-08-27T02:09:42.757Z,19
2017-08-27T02:10:42.324Z,19
2017-08-27T02:11:41.755Z,19
2017-08-27T02:12:41.202Z,19
2017-08-27T02:13:40.137Z,19
2017-08-27T02:14:39.573Z,19
2017-08-27T02:15:39.128Z,19
2017-08-27T02:16:38.186Z,19
2017-08-27T02:18:37.259Z,19
2017-08-27T02:19:36.453Z,19
2017-08-27T02:20:35.894Z,19
2017-08-27T02:21:35.582Z,19
2017-08-27T02:22:34.689Z,19
2017-08-27T02:23:34.282Z,19
2017-08-27T02:24:33.218Z,19
2017-08-27T02:25:32.657Z,19.1
2017-08-27T02:26:31.715Z,19.1
2017-08-27T02:27:31.409Z,19
2017-08-27T02:28:30.853Z,19
2017-08-27T02:29:30.165Z,19
2017-08-27T02:30:29.616Z,19
2017-08-27T02:31:29.074Z,19
2017-08-27T02:32:28.266Z,19
2017-08-27T02:33:27.585Z,19
2017-08-27T02:34:27.023Z,19
2017-08-27T02:35:26.461Z,19
2017-08-27T02:36:25.775Z,19
2017-08-27T02:38:24.484Z,19
2017-08-27T02:39:24.066Z,19
2017-08-27T02:40:23.276Z,19
2017-08-27T02:41:22.614Z,19
2017-08-27T02:42:22.043Z,19
2017-08-27T02:43:20.980Z,19
2017-08-27T02:44:20.420Z,19
2017-08-27T02:45:19.742Z,19
2017-08-27T02:46:19.561Z,19.1
2017-08-27T02:47:18.629Z,19.1
2017-08-27T02:48:17.937Z,19.1
2017-08-27T02:49:17.385Z,19.1
2017-08-27T02:50:16.449Z,19.1
2017-08-27T02:51:16.012Z,19.1
2017-08-27T02:52:15.590Z,19.1
2017-08-27T02:53:15.181Z,19.1
2017-08-27T02:54:14.375Z,19.1
2017-08-27T02:55:13.812Z,19.1
2017-08-27T02:56:13.023Z,19.1
2017-08-27T02:58:11.841Z,19.1
2017-08-27T02:59:11.404Z,19.1
2017-08-27T03:00:10.335Z,19
2017-08-27T03:01:10.035Z,19
2017-08-27T03:02:09.111Z,19
2017-08-27T03:03:08.305Z,19
2017-08-27T03:04:07.882Z,19
2017-08-27T03:05:07.192Z,19
2017-08-27T03:06:06.633Z,19
2017-08-27T03:07:05.700Z,19
2017-08-27T03:08:05.518Z,19
2017-08-27T03:09:04.703Z,19
2017-08-27T03:10:04.423Z,19
2017-08-27T03:11:03.364Z,19
2017-08-27T03:13:02.182Z,19
2017-08-27T03:14:01.865Z,19
2017-08-27T03:15:00.794Z,19
2017-08-27T03:15:59.984Z,19
2017-08-27T03:16:59.656Z,19
2017-08-27T03:17:59.218Z,19
2017-08-27T03:18:58.029Z,19
2017-08-27T03:19:57.722Z,19
2017-08-27T03:20:56.905Z,19
2017-08-27T03:21:56.103Z,19
2017-08-27T03:22:55.409Z,19
2017-08-27T03:23:54.974Z,19
2017-08-27T03:24:54.539Z,19
2017-08-27T03:25:54.098Z,19
2017-08-27T03:26:53.410Z,19
2017-08-27T03:27:52.736Z,19
2017-08-27T03:28:52.188Z,18.9
2017-08-27T03:29:51.377Z,18.9
2017-08-27T03:30:50.815Z,18.9
2017-08-27T03:31:50.160Z,18.9
2017-08-27T03:32:49.221Z,18.9
2017-08-27T03:33:48.659Z,18.9
2017-08-27T03:34:48.098Z,18.9
2017-08-27T03:35:47.161Z,18.9
2017-08-27T03:36:46.787Z,18.9
2017-08-27T03:37:46.351Z,18.9
2017-08-27T03:38:45.297Z,18.9
2017-08-27T03:39:44.737Z,18.9
2017-08-27T03:40:44.545Z,18.9
2017-08-27T03:42:43.374Z,18.9
2017-08-27T03:43:42.421Z,18.8
2017-08-27T03:44:41.863Z,18.8
2017-08-27T03:45:40.994Z,18.8
2017-08-27T03:46:40.793Z,18.8
2017-08-27T03:47:39.615Z,18.8
2017-08-27T03:48:39.327Z,18.8
2017-08-27T03:49:38.386Z,18.8
2017-08-27T03:50:38.081Z,18.8
2017-08-27T03:51:37.402Z,18.8
2017-08-27T03:52:36.466Z,18.8
2017-08-27T03:53:35.780Z,18.8
2017-08-27T03:54:35.319Z,18.8
2017-08-27T03:55:34.765Z,18.8
2017-08-27T03:56:34.217Z,18.8
2017-08-27T03:57:33.536Z,18.7
2017-08-27T03:58:32.985Z,18.8
2017-08-27T03:59:32.171Z,18.8
2017-08-27T04:00:31.609Z,18.7
2017-08-27T04:01:31.070Z,18.7
2017-08-27T04:02:30.131Z,18.7
2017-08-27T04:03:29.577Z,18.7
2017-08-27T04:04:29.109Z,18.7
2017-08-27T04:05:28.424Z,18.7
2017-08-27T04:06:27.737Z,18.7
2017-08-27T04:07:26.689Z,18.7
2017-08-27T04:08:26.495Z,18.7
2017-08-27T04:09:25.813Z,18.6
2017-08-27T04:10:25.241Z,18.6
2017-08-27T04:11:24.695Z,18.6
2017-08-27T04:12:23.886Z,18.6
2017-08-27T04:13:23.196Z,18.6
2017-08-27T04:14:22.893Z,18.6
2017-08-27T04:15:21.967Z,18.6
2017-08-27T04:16:21.285Z,18.6
2017-08-27T04:17:20.737Z,18.6
2017-08-27T04:18:20.047Z,18.6
2017-08-27T04:19:19.501Z,18.5
2017-08-27T04:20:18.867Z,18.5
2017-08-27T04:21:18.304Z,18.6
2017-08-27T04:22:17.627Z,18.6
2017-08-27T04:23:16.683Z,18.5
2017-08-27T04:24:16.135Z,18.5
2017-08-27T04:25:15.557Z,18.5
2017-08-27T04:26:15.131Z,18.5
2017-08-27T04:27:14.205Z,18.5
2017-08-27T04:29:12.897Z,18.4
2017-08-27T04:30:12.213Z,18.4
2017-08-27T04:31:11.521Z,18.4
2017-08-27T04:32:10.708Z,18.4
2017-08-27T04:33:10.281Z,18.4
2017-08-27T04:34:09.583Z,18.4
2017-08-27T04:36:08.536Z,18.4
2017-08-27T04:37:07.847Z,18.4
2017-08-27T04:38:06.918Z,18.3
2017-08-27T04:39:06.604Z,18.3
2017-08-27T04:41:05.434Z,18.3
2017-08-27T04:42:04.485Z,18.2
2017-08-27T04:43:03.947Z,18.2
2017-08-27T04:44:03.385Z,18.2
2017-08-27T04:45:02.578Z,18.2
2017-08-27T04:47:01.406Z,18.2
2017-08-27T04:48:00.848Z,18.1
2017-08-27T04:48:59.774Z,18.2
2017-08-27T04:49:59.469Z,18.1
2017-08-27T04:50:58.548Z,18.1
2017-08-27T04:51:57.857Z,18.1
2017-08-27T04:52:57.296Z,18.1
2017-08-27T04:53:56.616Z,18.1
2017-08-27T04:54:56.328Z,18
2017-08-27T04:55:55.276Z,18
2017-08-27T04:56:54.720Z,18
2017-08-27T04:57:54.162Z,18
2017-08-27T04:58:53.723Z,18
2017-08-27T04:59:52.673Z,18
2017-08-27T05:00:51.870Z,18
2017-08-27T05:01:51.316Z,18
2017-08-27T05:02:50.766Z,18
2017-08-27T05:03:49.959Z,18
2017-08-27T05:04:49.651Z,18
2017-08-27T05:05:49.100Z,18
2017-08-27T05:06:48.418Z,18
2017-08-27T05:07:47.240Z,18
2017-08-27T05:08:46.567Z,18
2017-08-27T05:09:46.006Z,18
2017-08-27T05:10:45.703Z,18
2017-08-27T05:11:44.650Z,18
2017-08-27T05:12:44.088Z,18.1
2017-08-27T05:13:43.668Z,18.1
2017-08-27T05:14:42.861Z,18.1
2017-08-27T05:15:42.044Z,18.1
2017-08-27T05:16:41.230Z,18.1
2017-08-27T05:19:39.686Z,18.2
2017-08-27T05:20:38.641Z,18.2
2017-08-27T05:21:38.333Z,18.3
2017-08-27T05:22:37.777Z,18.3
2017-08-27T05:23:36.979Z,18.2
2017-08-27T05:24:36.542Z,18.2
2017-08-27T05:25:35.855Z,18.2
2017-08-27T05:26:35.177Z,18.2
2017-08-27T05:27:34.494Z,18.1
2017-08-27T05:28:34.064Z,18.1
2017-08-27T05:29:32.996Z,18.2
2017-08-27T05:32:30.953Z,18.1
2017-08-27T05:33:30.642Z,18.1
2017-08-27T05:34:29.833Z,18.1
2017-08-27T05:35:29.132Z,18.1
2017-08-27T05:36:28.323Z,18.1
2017-08-27T05:37:27.888Z,18.1
2017-08-27T05:38:26.974Z,18.1
2017-08-27T05:39:26.425Z,18.1
2017-08-27T05:40:25.888Z,18.1
2017-08-27T05:41:25.079Z,18.1
2017-08-27T05:42:24.272Z,18.1
2017-08-27T05:43:23.960Z,18.1
2017-08-27T05:44:23.046Z,18.1
2017-08-27T05:45:22.349Z,18.1
2017-08-27T05:46:21.800Z,18.1
2017-08-27T05:47:21.106Z,18.1
2017-08-27T05:48:20.292Z,18.1
2017-08-27T05:49:19.635Z,18.1
2017-08-27T05:50:19.078Z,18.1
2017-08-27T05:51:18.529Z,18.1
2017-08-27T05:52:17.840Z,18.1
2017-08-27T05:53:17.281Z,18.1
2017-08-27T05:54:16.603Z,18.1
2017-08-27T05:55:15.813Z,18.1
2017-08-27T05:56:15.387Z,18.1
2017-08-27T05:57:14.705Z,18.1
2017-08-27T05:58:14.130Z,18.1
2017-08-27T05:59:13.332Z,18.2
2017-08-27T06:00:12.903Z,18.2
2017-08-27T06:01:12.108Z,18.2
2017-08-27T06:02:11.536Z,18.2
2017-08-27T06:03:10.342Z,18.3
2017-08-27T06:04:10.292Z,18.4
2017-08-27T06:05:08.989Z,18.4
2017-08-27T06:06:08.687Z,18.4
2017-08-27T06:07:08.387Z,18.5
2017-08-27T06:07:38.884Z,18.5
2017-08-27T06:09:06.887Z,18.5
2017-08-27T06:10:05.705Z,18.5
2017-08-27T06:11:05.282Z,18.6
2017-08-27T06:12:04.851Z,18.6
2017-08-27T06:13:04.028Z,18.7
2017-08-27T06:14:03.330Z,18.7
2017-08-27T06:16:02.153Z,18.8
2017-08-27T06:17:01.599Z,18.8
2017-08-27T06:18:00.798Z,18.8
2017-08-27T06:19:59.635Z,18.8
2017-08-27T06:20:59.091Z,18.8
2017-08-27T06:22:57.418Z,18.8
2017-08-27T06:23:56.993Z,18.8
2017-08-27T06:24:56.436Z,18.9
2017-08-27T06:25:55.750Z,18.9
2017-08-27T06:26:54.937Z,18.8
2017-08-27T06:27:54.248Z,18.8
2017-08-27T06:28:53.574Z,18.8
2017-08-27T06:31:51.810Z,18.8
2017-08-27T06:32:50.743Z,18.8
2017-08-27T06:33:50.685Z,18.8
2017-08-27T06:34:49.628Z,18.8
2017-08-27T06:35:48.817Z,18.8
2017-08-27T06:36:48.384Z,18.8
2017-08-27T06:37:47.572Z,18.8
2017-08-27T06:38:47.261Z,18.8
2017-08-27T06:39:46.198Z,18.8
2017-08-27T06:40:45.627Z,18.8
2017-08-27T06:42:44.351Z,18.7
2017-08-27T06:43:43.929Z,18.7
2017-08-27T06:44:43.386Z,18.7
2017-08-27T06:45:42.326Z,18.7
2017-08-27T06:46:41.628Z,18.7
2017-08-27T06:47:40.952Z,18.7
2017-08-27T06:48:40.518Z,18.7
2017-08-27T06:50:39.219Z,18.7
2017-08-27T06:51:38.531Z,18.6
2017-08-27T06:52:38.092Z,18.7
2017-08-27T06:53:37.159Z,18.7
2017-08-27T06:54:36.722Z,18.7
2017-08-27T06:55:36.309Z,18.7
2017-08-27T06:56:35.250Z,18.7
2017-08-27T06:57:34.561Z,18.6
2017-08-27T06:58:34.007Z,18.6
2017-08-27T06:59:33.440Z,18.7
2017-08-27T07:00:33.009Z,18.7
2017-08-27T07:01:31.940Z,18.8
2017-08-27T07:02:02.566Z,18.8
2017-08-27T07:02:33.195Z,18.8
2017-08-27T07:03:30.626Z,18.8
2017-08-27T07:05:29.585Z,18.9
2017-08-27T07:06:28.387Z,18.9
2017-08-27T07:07:28.214Z,18.9
2017-08-27T07:08:27.530Z,18.9
2017-08-27T07:09:26.828Z,18.8
2017-08-27T07:10:26.024Z,18.8
2017-08-27T07:11:25.591Z,18.9
2017-08-27T07:13:24.292Z,18.9
2017-08-27T07:14:23.474Z,19
2017-08-27T07:16:22.184Z,19.1
2017-08-27T07:17:21.749Z,19.1
2017-08-27T07:18:20.704Z,19.1
2017-08-27T07:19:20.400Z,19.1
2017-08-27T07:20:19.589Z,19.1
2017-08-27T07:21:19.289Z,19.1
2017-08-27T07:23:17.881Z,19.1
2017-08-27T07:24:16.808Z,19.1
2017-08-27T07:25:16.243Z,19.1
2017-08-27T07:26:15.561Z,19.1
2017-08-27T07:27:15.126Z,19.1
2017-08-27T07:28:14.723Z,19.2
2017-08-27T07:29:13.678Z,19.2
2017-08-27T07:30:13.251Z,19.2
2017-08-27T07:31:12.327Z,19.2
2017-08-27T07:32:11.881Z,19.2
2017-08-27T07:33:11.072Z,19.2
2017-08-27T07:34:10.389Z,19.3
2017-08-27T07:35:10.017Z,19.3
2017-08-27T07:36:09.079Z,19.3
2017-08-27T07:37:09.195Z,19.4
2017-08-27T07:38:07.642Z,19.4
2017-08-27T07:39:07.115Z,19.5
2017-08-27T07:40:06.571Z,19.4
2017-08-27T07:41:05.759Z,19.5
2017-08-27T07:43:04.587Z,19.5
2017-08-27T07:44:04.032Z,19.5
2017-08-27T07:45:02.978Z,19.5
2017-08-27T07:49:00.955Z,19.6
2017-08-27T07:50:59.655Z,19.6
2017-08-27T07:51:58.719Z,19.6
2017-08-27T07:52:58.034Z,19.6
2017-08-27T08:18:41.812Z,19.9
2017-08-27T08:22:38.912Z,20
2017-08-27T08:23:38.391Z,20
2017-08-27T08:24:37.961Z,20
2017-08-27T08:25:36.656Z,20.1
2017-08-27T08:28:35.243Z,20.3
2017-08-27T08:29:05.879Z,20.3
2017-08-27T08:30:34.133Z,20.2
2017-08-27T08:33:31.984Z,20.2
2017-08-27T08:34:31.558Z,20.2
2017-08-27T08:35:30.998Z,20.2
2017-08-27T08:36:30.434Z,20.2
2017-08-27T08:43:25.589Z,20.2
2017-08-27T09:03:13.293Z,20.6
2017-08-27T09:10:08.574Z,20.6
2017-08-27T09:12:07.306Z,20.6
2017-08-27T09:14:06.262Z,20.7
2017-08-27T09:16:04.964Z,20.7
2017-08-27T09:17:04.669Z,20.7
2017-08-27T09:18:04.018Z,20.7
2017-08-27T09:20:02.470Z,20.6
2017-08-27T09:22:01.436Z,20.7
2017-08-27T09:22:31.812Z,20.7
2017-08-27T09:24:59.445Z,20.7
2017-08-27T09:25:58.878Z,20.7
2017-08-27T09:26:58.441Z,20.8
2017-08-27T09:27:57.876Z,20.8
2017-08-27T09:28:57.174Z,20.9
2017-08-27T09:31:55.262Z,20.9
2017-08-27T09:33:54.107Z,20.9
2017-08-27T09:34:53.553Z,20.9
2017-08-27T09:35:52.523Z,20.9
2017-08-27T09:36:52.120Z,20.9
2017-08-27T09:37:51.817Z,20.9
2017-08-27T09:38:51.002Z,20.9
2017-08-27T09:39:50.338Z,21
2017-08-27T09:40:49.785Z,21
2017-08-27T09:41:49.241Z,21.1
2017-08-27T09:42:48.433Z,21.1
2017-08-27T09:43:47.884Z,21.2
2017-08-27T09:44:47.195Z,21.2
2017-08-27T09:45:46.639Z,21.2
2017-08-27T09:46:45.842Z,21.2
2017-08-27T09:47:45.159Z,21.2
2017-08-27T09:48:45.113Z,21.2
2017-08-27T09:49:44.308Z,21.2
2017-08-27T09:50:43.883Z,21.1
2017-08-27T09:51:43.325Z,21.1
2017-08-27T09:52:42.381Z,21.1
2017-08-27T09:53:41.567Z,21.1
2017-08-27T09:54:41.043Z,21.1
2017-08-27T09:55:40.497Z,21
2017-08-27T09:57:39.612Z,21.1
2017-08-27T09:58:38.807Z,21.1
2017-08-27T09:59:38.385Z,21.1
2017-08-27T10:00:37.464Z,21.1
2017-08-27T10:01:36.903Z,21.1
2017-08-27T10:02:36.342Z,21.2
2017-08-27T10:03:35.773Z,21.2
2017-08-27T10:04:35.088Z,21.1
2017-08-27T10:05:34.785Z,21.2
2017-08-27T10:06:34.226Z,21.3
2017-08-27T10:07:33.175Z,21.3
2017-08-27T10:08:32.619Z,21.2
2017-08-27T10:09:31.817Z,21.3
2017-08-27T10:10:31.636Z,21.3
2017-08-27T10:11:30.822Z,21.3
2017-08-27T10:13:29.528Z,21.2
2017-08-27T10:14:28.962Z,21.2
2017-08-27T10:15:28.408Z,21.2
2017-08-27T10:16:27.997Z,21.2
2017-08-27T10:17:27.188Z,21.3
2017-08-27T10:18:26.630Z,21.3
2017-08-27T10:19:26.065Z,21.3
2017-08-27T10:20:25.376Z,21.3
2017-08-27T10:21:24.819Z,21.4
2017-08-27T10:22:24.401Z,21.5
2017-08-27T10:23:23.591Z,21.6
2017-08-27T10:24:23.299Z,21.6
2017-08-27T10:25:22.242Z,21.5
2017-08-27T10:26:21.690Z,21.6
2017-08-27T10:27:21.264Z,21.6
2017-08-27T10:28:20.583Z,21.6
2017-08-27T10:29:20.036Z,21.6
2017-08-27T10:31:19.124Z,21.7
2017-08-27T10:32:18.317Z,21.7
2017-08-27T10:33:17.520Z,21.6
2017-08-27T10:34:17.086Z,21.7
2017-08-27T10:35:16.545Z,21.7
2017-08-27T10:36:16.134Z,21.6
2017-08-27T10:37:15.568Z,21.7
2017-08-27T10:38:14.376Z,21.7
2017-08-27T10:40:13.713Z,21.7
2017-08-27T10:41:12.790Z,21.7
2017-08-27T10:42:12.479Z,21.8
2017-08-27T10:44:11.189Z,21.8
2017-08-27T10:45:10.770Z,21.8
2017-08-27T10:46:09.831Z,21.7
2017-08-27T10:47:09.525Z,21.7
2017-08-27T10:48:08.974Z,21.6
2017-08-27T10:49:08.049Z,21.6
2017-08-27T10:50:07.736Z,21.6
2017-08-27T10:51:07.259Z,21.7
2017-08-27T10:52:06.448Z,21.7
2017-08-27T10:53:05.782Z,21.8
2017-08-27T10:54:05.236Z,21.9
2017-08-27T10:55:04.553Z,22
2017-08-27T10:56:04.102Z,22
2017-08-27T10:57:03.559Z,22.1
2017-08-27T10:58:02.496Z,22.1
2017-08-27T10:59:02.073Z,22.1
2017-08-27T11:00:01.894Z,22.1
2017-08-27T11:01:01.081Z,22.1
2017-08-27T11:02:00.396Z,22.2
2017-08-27T11:02:59.957Z,22.1
2017-08-27T11:03:59.399Z,22.1
2017-08-27T11:04:58.969Z,22.1
2017-08-27T11:05:58.400Z,22.1
2017-08-27T11:06:57.224Z,22.1
2017-08-27T11:07:56.916Z,22
2017-08-27T11:08:56.107Z,21.9
2017-08-27T11:09:56.063Z,21.9
2017-08-27T11:10:55.501Z,21.9
2017-08-27T11:11:54.568Z,21.9
2017-08-27T11:12:53.753Z,21.9
2017-08-27T11:13:53.446Z,22
2017-08-27T11:14:52.762Z,22
2017-08-27T11:15:51.961Z,22.1
2017-08-27T11:16:51.657Z,22.1
2017-08-27T11:17:51.359Z,22.2
2017-08-27T11:18:50.542Z,22.2
2017-08-27T11:19:50.120Z,22.3
2017-08-27T11:20:49.306Z,22.3
2017-08-27T11:21:48.636Z,22.3
2017-08-27T11:23:47.980Z,22.2
2017-08-27T11:24:47.438Z,22.1
2017-08-27T11:25:46.489Z,22
2017-08-27T11:26:46.173Z,22.1
2017-08-27T11:27:45.739Z,22
2017-08-27T11:28:44.557Z,22
2017-08-27T11:29:44.124Z,22
2017-08-27T11:30:43.825Z,22
2017-08-27T11:31:43.388Z,22.1
2017-08-27T11:32:42.439Z,22.1
2017-08-27T11:33:42.146Z,22.1
2017-08-27T11:34:41.608Z,22.1
2017-08-27T11:35:40.547Z,22.1
2017-08-27T11:36:39.878Z,22.1
2017-08-27T11:37:39.564Z,22.1
2017-08-27T11:38:38.884Z,22.2
2017-08-27T11:39:38.707Z,22.2
2017-08-27T11:40:38.157Z,22.2
2017-08-27T11:41:37.217Z,22.2
2017-08-27T11:42:36.797Z,22.2
2017-08-27T11:43:36.228Z,22.3
2017-08-27T11:44:35.416Z,22.2
2017-08-27T11:45:35.368Z,22.2
2017-08-27T11:46:34.559Z,22.2
2017-08-27T11:47:33.634Z,22.2
2017-08-27T11:48:33.591Z,22.1
2017-08-27T11:49:33.039Z,22.1
2017-08-27T11:50:32.235Z,22.1
2017-08-27T11:51:31.921Z,22.1
2017-08-27T11:52:31.238Z,22.1
2017-08-27T11:53:30.410Z,22
2017-08-27T11:54:30.242Z,22.1
2017-08-27T11:55:29.314Z,22
2017-08-27T11:56:28.516Z,22.1
2017-08-27T11:57:28.344Z,22.1
2017-08-27T11:58:27.783Z,22.2
2017-08-27T11:59:27.092Z,22.2
2017-08-27T12:00:26.401Z,22.3
2017-08-27T12:00:57.171Z,22.3
2017-08-27T12:01:27.430Z,22.4
2017-08-27T12:01:57.743Z,22.4
2017-08-27T12:02:28.373Z,22.4
2017-08-27T12:03:24.797Z,22.5
2017-08-27T12:04:24.229Z,22.6
2017-08-27T12:05:23.454Z,22.6
2017-08-27T12:06:22.896Z,22.6
2017-08-27T12:07:22.336Z,22.7
2017-08-27T12:09:21.177Z,22.7
2017-08-27T12:11:20.136Z,22.8
2017-08-27T12:12:19.702Z,22.9
2017-08-27T12:13:18.757Z,23
2017-08-27T12:14:18.716Z,23.1
2017-08-27T12:15:17.906Z,23.1
2017-08-27T12:16:16.977Z,23
2017-08-27T12:17:17.040Z,23
2017-08-27T12:18:16.364Z,22.9
2017-08-27T12:19:15.952Z,22.9
2017-08-27T12:20:15.120Z,22.8
2017-08-27T12:21:14.317Z,22.8
2017-08-27T12:22:14.138Z,22.8
2017-08-27T12:24:12.712Z,22.8
2017-08-27T12:25:12.028Z,22.7
2017-08-27T12:26:11.470Z,22.7
2017-08-27T12:27:11.031Z,22.6
2017-08-27T12:28:10.472Z,22.6
2017-08-27T12:29:10.155Z,22.6
2017-08-27T12:30:09.592Z,22.8
2017-08-27T12:31:08.771Z,22.8
2017-08-27T12:32:08.346Z,22.9
2017-08-27T12:33:07.672Z,22.9
2017-08-27T12:34:07.234Z,23
2017-08-27T12:35:06.557Z,23
2017-08-27T12:36:06.254Z,23.1
2017-08-27T12:37:05.321Z,23.2
2017-08-27T12:38:04.768Z,23.2
2017-08-27T12:39:04.579Z,23.1
2017-08-27T12:40:03.892Z,23
2017-08-27T12:42:02.858Z,22.8
2017-08-27T12:43:02.292Z,22.8
2017-08-27T12:44:01.604Z,22.8
2017-08-27T12:44:32.234Z,22.8
2017-08-27T12:45:02.613Z,22.8
2017-08-27T12:45:32.990Z,22.8
2017-08-27T12:46:59.733Z,23
2017-08-27T12:47:59.676Z,23.1
2017-08-27T12:48:59.125Z,23.3
2017-08-27T12:49:58.573Z,23.4
2017-08-27T12:50:57.893Z,23.4
2017-08-27T12:51:57.349Z,23.5
2017-08-27T12:52:56.921Z,23.3
2017-08-27T12:53:56.376Z,23.4
2017-08-27T12:54:55.434Z,23.3
2017-08-27T12:55:26.065Z,23.3
2017-08-27T12:55:56.197Z,23.2
2017-08-27T12:56:27.096Z,23.2
2017-08-27T12:57:53.845Z,23.2
2017-08-27T12:58:53.372Z,23.3
2017-08-27T12:59:52.678Z,23.5
2017-08-27T13:00:52.259Z,23.6
2017-08-27T13:01:51.716Z,23.7
2017-08-27T13:02:51.153Z,23.9
2017-08-27T13:03:50.969Z,24
2017-08-27T13:04:49.788Z,23.9
2017-08-27T13:05:49.851Z,23.6
2017-08-27T13:06:48.802Z,23.8
2017-08-27T13:07:48.500Z,23.7
2017-08-27T13:08:48.199Z,23.6
2017-08-27T13:09:47.651Z,23.5
2017-08-27T13:10:47.231Z,23.3
2017-08-27T13:11:46.314Z,23.3
2017-08-27T13:12:46.129Z,23.1
2017-08-27T13:13:44.944Z,23
2017-08-27T13:14:44.379Z,22.9
2017-08-27T13:15:44.326Z,22.8
2017-08-27T13:16:43.509Z,22.8
2017-08-27T13:17:42.961Z,22.8
2017-08-27T13:18:42.650Z,22.9
2017-08-27T13:19:42.113Z,23.1
2017-08-27T13:20:41.436Z,23.3
2017-08-27T13:21:40.619Z,23.4
2017-08-27T13:22:40.190Z,23.5
2017-08-27T13:23:40.010Z,23.5
2017-08-27T13:24:39.329Z,23.4
2017-08-27T13:25:38.392Z,23.4
2017-08-27T13:26:38.213Z,23.3
2017-08-27T13:27:37.788Z,23.4
2017-08-27T13:28:37.106Z,23.4
2017-08-27T13:29:36.799Z,23.5
2017-08-27T13:30:35.861Z,23.4
2017-08-27T13:31:35.305Z,23.5
2017-08-27T13:32:34.876Z,23.5
2017-08-27T13:33:34.325Z,23.5
2017-08-27T13:34:33.631Z,23.6
2017-08-27T13:35:32.950Z,23.6
2017-08-27T13:36:32.756Z,23.6
2017-08-27T13:37:32.079Z,23.6
2017-08-27T13:38:31.898Z,23.4
2017-08-27T13:39:31.462Z,23.3
2017-08-27T13:40:30.646Z,23.5
2017-08-27T13:42:29.474Z,23.4
2017-08-27T13:44:28.690Z,23.2
2017-08-27T13:45:28.007Z,23.2
2017-08-27T13:46:27.608Z,23.4
2017-08-27T13:47:26.674Z,23.5
2017-08-27T13:48:26.514Z,23.5
2017-08-27T13:49:25.830Z,23.4
2017-08-27T13:50:25.532Z,23.3
2017-08-27T13:51:24.596Z,23.3
2017-08-27T13:52:24.045Z,23.2
2017-08-27T13:52:54.304Z,23.2
2017-08-27T13:53:24.677Z,23.2
2017-08-27T13:55:22.875Z,23
2017-08-27T13:56:22.183Z,23.1
2017-08-27T13:57:21.755Z,23.3
2017-08-27T13:58:21.077Z,23.4
2017-08-27T13:59:20.524Z,23.4
2017-08-27T14:00:20.092Z,23.5
2017-08-27T14:01:19.288Z,23.6
2017-08-27T14:02:18.982Z,23.6
2017-08-27T14:03:18.423Z,23.7
2017-08-27T14:04:17.358Z,23.6
2017-08-27T14:06:16.690Z,23.7
2017-08-27T14:07:16.128Z,23.6
2017-08-27T14:08:15.576Z,23.5
2017-08-27T14:09:14.897Z,23.5
2017-08-27T14:10:14.325Z,23.5
2017-08-27T14:11:13.879Z,23.6
2017-08-27T14:12:13.694Z,23.8
2017-08-27T14:13:13.016Z,23.8
2017-08-27T14:14:12.468Z,23.8
2017-08-27T14:15:11.910Z,23.7
2017-08-27T14:17:11.125Z,23.5
2017-08-27T14:18:10.199Z,23.5
2017-08-27T14:19:09.455Z,23.6
2017-08-27T14:20:09.400Z,23.7
2017-08-27T14:21:08.601Z,23.6
2017-08-27T14:22:08.178Z,23.5
2017-08-27T14:23:07.485Z,23.4
2017-08-27T14:24:07.309Z,23.5
2017-08-27T14:25:06.615Z,23.5
2017-08-27T14:28:05.085Z,23.7
2017-08-27T14:29:04.282Z,23.7
2017-08-27T14:30:03.589Z,23.6
2017-08-27T14:31:03.779Z,23.5
2017-08-27T14:32:03.405Z,23.3
2017-08-27T14:33:02.347Z,23.2
2017-08-27T14:34:01.788Z,23.1
2017-08-27T14:35:01.236Z,23
2017-08-27T14:36:00.682Z,23.1
2017-08-27T14:36:30.806Z,23.1
2017-08-27T14:37:01.436Z,23.1
2017-08-27T14:38:00.023Z,23.1
2017-08-27T14:38:59.478Z,23
2017-08-27T14:39:58.661Z,23.1
2017-08-27T14:40:58.104Z,23.1
2017-08-27T14:41:57.659Z,23
2017-08-27T14:42:56.965Z,22.9
2017-08-27T14:43:56.528Z,22.9
2017-08-27T14:44:55.952Z,22.8
2017-08-27T14:45:55.268Z,22.8
2017-08-27T14:46:55.219Z,22.7
2017-08-27T14:47:54.659Z,22.7
2017-08-27T14:48:24.790Z,22.7
2017-08-27T14:49:53.296Z,22.8
2017-08-27T14:50:53.106Z,22.9
2017-08-27T14:51:52.306Z,23
2017-08-27T14:52:52.005Z,23
2017-08-27T14:53:51.460Z,23.1
2017-08-27T14:54:50.652Z,23.2
2017-08-27T14:55:50.096Z,23.3
2017-08-27T14:56:49.786Z,23.3
2017-08-27T14:57:49.227Z,23.2
2017-08-27T14:58:48.293Z,23.2
2017-08-27T14:59:48.126Z,23.2
2017-08-27T15:00:47.569Z,23.1
2017-08-27T15:01:46.898Z,23.1
2017-08-27T15:02:46.717Z,23.1
2017-08-27T15:03:46.152Z,23.2
2017-08-27T15:04:45.722Z,23.1
2017-08-27T15:05:44.918Z,23.1
2017-08-27T15:06:44.233Z,23
2017-08-27T15:07:43.680Z,23
2017-08-27T15:08:43.246Z,23.1
2017-08-27T15:09:42.711Z,23
2017-08-27T15:10:42.284Z,23
2017-08-27T15:11:41.603Z,23
2017-08-27T15:12:41.044Z,22.9
2017-08-27T15:13:40.743Z,22.8
2017-08-27T15:14:39.931Z,22.7
2017-08-27T15:15:39.387Z,22.7
2017-08-27T15:16:38.860Z,22.8
2017-08-27T15:17:38.435Z,22.8
2017-08-27T15:18:37.878Z,22.8
2017-08-27T15:19:37.308Z,22.9